Time;durP1;ratioP1;P1;durP2;ratioP2;P2;SDS_P1;SDS_P2;PMS_P1;PMS_P2;Temp;Humidity;BMP_temperature;BMP_pressure;BME280_temperature;BME280_humidity;BME280_pressure;Samples;Min_cycle;Max_cycle;Signal;HPM_P1;HPM_P2
2022/03/21 00:00:33;;;;;;;15.23;12.93;;;17.50;36.10;;;;;;5086806;28;20016;-39
2022/03/21 00:03:00;;;;;;;15.60;12.80;;;17.50;36.10;;;;;;5102519;28;20035;-38
2022/03/21 00:05:28;;;;;;;13.75;12.32;;;17.50;36.10;;;;;;5085279;28;20543;-39
2022/03/21 00:07:53;;;;;;;14.05;12.55;;;17.50;36.10;;;;;;5085010;28;20026;-38
2022/03/21 00:10:19;;;;;;;14.50;13.00;;;17.50;36.10;;;;;;5103814;28;20052;-43
2022/03/21 00:12:45;;;;;;;15.93;13.25;;;17.40;36.10;;;;;;5085338;28;20036;-41
2022/03/21 00:15:11;;;;;;;15.38;12.40;;;17.40;36.10;;;;;;5104963;28;20031;-39
2022/03/21 00:17:40;;;;;;;14.38;12.50;;;17.40;36.10;;;;;;5106638;28;20045;-39
2022/03/21 00:20:10;;;;;;;15.77;12.55;;;17.40;36.10;;;;;;5105723;28;20020;-38
2022/03/21 00:22:37;;;;;;;14.50;12.55;;;17.40;36.10;;;;;;5105604;28;20019;-41
2022/03/21 00:25:05;;;;;;;14.23;12.63;;;17.40;36.10;;;;;;5105951;28;20024;-40
2022/03/21 00:27:31;;;;;;;13.48;12.02;;;17.50;36.20;;;;;;5088321;28;20027;-38
2022/03/21 00:29:58;;;;;;;14.75;12.82;;;17.40;36.10;;;;;;5087755;28;20019;-41
2022/03/21 00:32:23;;;;;;;14.88;12.65;;;17.40;36.10;;;;;;5085428;28;20494;-40
2022/03/21 00:34:49;;;;;;;13.90;12.30;;;17.40;36.10;;;;;;5084939;28;20027;-42
2022/03/21 00:37:15;;;;;;;14.30;12.60;;;17.40;36.20;;;;;;5102623;28;20012;-39
2022/03/21 00:39:41;;;;;;;14.35;12.68;;;17.40;36.10;;;;;;5101832;28;20020;-38
2022/03/21 00:42:09;;;;;;;14.10;12.18;;;17.40;36.10;;;;;;5083623;28;20016;-39
2022/03/21 00:44:34;;;;;;;15.65;12.45;;;17.40;36.10;;;;;;5084309;28;20016;-39
2022/03/21 00:47:01;;;;;;;14.07;12.43;;;17.40;36.10;;;;;;5083593;28;20481;-39
2022/03/21 00:49:26;;;;;;;15.27;12.90;;;17.40;36.20;;;;;;5101174;28;20024;-38
2022/03/21 00:51:53;;;;;;;14.98;12.77;;;17.40;36.10;;;;;;5101805;28;20028;-41
2022/03/21 00:54:19;;;;;;;14.45;12.10;;;17.40;36.20;;;;;;5101050;28;20500;-39
2022/03/21 00:56:45;;;;;;;13.60;12.10;;;17.40;36.20;;;;;;5083269;28;20013;-39
2022/03/21 00:59:11;;;;;;;14.07;12.10;;;17.40;36.20;;;;;;5101014;28;20021;-39
2022/03/21 01:01:37;;;;;;;13.70;12.23;;;17.40;36.20;;;;;;5099824;28;20048;-38
2022/03/21 01:04:03;;;;;;;13.63;12.18;;;17.30;36.10;;;;;;5100339;28;20024;-45
2022/03/21 01:06:32;;;;;;;13.90;12.40;;;17.30;36.20;;;;;;5100371;28;20025;-40
2022/03/21 01:08:58;;;;;;;13.95;12.18;;;17.40;36.20;;;;;;5096120;28;20020;-39
2022/03/21 01:11:25;;;;;;;13.43;12.02;;;17.30;36.20;;;;;;5096682;28;20466;-39
2022/03/21 01:13:51;;;;;;;14.82;12.25;;;17.30;36.20;;;;;;5096219;28;20115;-41
2022/03/21 01:16:18;;;;;;;14.55;12.48;;;17.30;36.20;;;;;;5078410;28;20016;-39
2022/03/21 01:18:45;;;;;;;14.07;11.68;;;17.30;36.20;;;;;;5078112;28;20616;-39
2022/03/21 01:21:11;;;;;;;14.00;12.15;;;17.30;36.20;;;;;;5096344;28;20031;-39
2022/03/21 01:23:38;;;;;;;13.32;11.90;;;17.40;36.20;;;;;;5095984;28;20023;-39
2022/03/21 01:26:03;;;;;;;14.10;12.50;;;17.30;36.10;;;;;;5077551;28;20012;-39
2022/03/21 01:28:29;;;;;;;14.02;12.52;;;17.30;36.10;;;;;;5077567;28;20031;-39
2022/03/21 01:30:55;;;;;;;13.05;11.63;;;17.30;36.10;;;;;;5101428;28;20024;-41
2022/03/21 01:33:21;;;;;;;13.25;11.68;;;17.30;36.10;;;;;;5103814;28;20016;-39
2022/03/21 01:35:47;;;;;;;14.60;12.18;;;17.30;36.10;;;;;;5102682;28;20025;-43
2022/03/21 01:38:14;;;;;;;13.68;11.88;;;17.30;36.20;;;;;;5084076;28;20024;-43
2022/03/21 01:40:40;;;;;;;14.20;11.65;;;17.30;36.20;;;;;;5084931;28;20009;-42
2022/03/21 01:43:10;;;;;;;14.13;11.73;;;17.30;36.20;;;;;;5084580;28;20096;-40
2022/03/21 01:45:35;;;;;;;13.18;11.75;;;17.30;36.20;;;;;;5081868;28;20021;-40
2022/03/21 01:48:04;;;;;;;13.48;12.07;;;17.30;36.10;;;;;;5101080;28;20482;-41
2022/03/21 01:50:30;;;;;;;13.50;12.07;;;17.30;36.20;;;;;;5083935;28;20025;-39
2022/03/21 01:55:43;;;;;;;14.25;12.23;;;17.30;36.10;;;;;;5083624;28;20034;-40
2022/03/21 01:55:44;;;;;;;13.27;11.77;;;17.30;36.20;;;;;;5100194;28;20542;-39
2022/03/21 01:58:13;;;;;;;12.95;11.65;;;17.30;36.10;;;;;;5100553;28;20016;-40
2022/03/21 02:00:40;;;;;;;12.63;11.32;;;17.30;36.20;;;;;;5099416;28;20008;-39
2022/03/21 02:03:06;;;;;;;13.77;11.95;;;17.30;36.20;;;;;;5098330;28;20046;-38
2022/03/21 02:05:33;;;;;;;12.63;11.32;;;17.30;36.20;;;;;;5098322;28;20055;-39
2022/03/21 02:07:59;;;;;;;13.00;11.70;;;17.30;36.20;;;;;;5080720;28;20008;-39
2022/03/21 02:10:25;;;;;;;13.50;12.05;;;17.20;36.20;;;;;;5079949;28;20095;-39
2022/03/21 02:12:50;;;;;;;14.43;11.90;;;17.20;36.20;;;;;;5098432;28;20067;-38
2022/03/21 02:15:16;;;;;;;13.90;11.95;;;17.30;36.20;;;;;;5080178;28;20382;-39
2022/03/21 02:17:43;;;;;;;14.32;11.68;;;17.20;36.30;;;;;;5078874;28;20048;-39
2022/03/21 02:20:09;;;;;;;15.00;11.90;;;17.30;36.30;;;;;;5078953;28;20481;-39
2022/03/21 02:22:56;;;;;;;13.27;11.68;;;17.20;36.20;;;;;;5079096;28;20077;-40
2022/03/21 02:25:32;;;;;;;14.07;12.57;;;17.20;36.30;;;;;;5095672;28;20070;-39
2022/03/21 02:28:05;;;;;;;13.00;11.60;;;17.20;36.30;;;;;;5079822;28;20072;-39
2022/03/21 02:30:32;;;;;;;13.55;11.77;;;17.20;36.30;;;;;;5079339;28;20012;-39
2022/03/21 02:32:59;;;;;;;13.45;11.88;;;17.20;36.30;;;;;;5078852;28;20077;-41
2022/03/21 02:35:26;;;;;;;12.95;11.48;;;17.20;36.30;;;;;;5079929;28;20095;-39
2022/03/21 02:37:51;;;;;;;13.27;11.13;;;17.20;36.30;;;;;;5062349;28;20427;-39
2022/03/21 02:40:17;;;;;;;13.00;11.60;;;17.20;36.90;;;;;;5061553;28;20057;-40
2022/03/21 02:42:44;;;;;;;13.07;11.68;;;17.20;36.30;;;;;;5096903;28;20023;-39
2022/03/21 02:45:09;;;;;;;12.85;10.90;;;17.20;36.30;;;;;;5096990;28;20027;-40
2022/03/21 02:47:35;;;;;;;12.73;10.95;;;17.20;36.30;;;;;;5097951;28;20020;-40
2022/03/21 02:50:02;;;;;;;13.35;11.65;;;17.20;36.30;;;;;;5079614;28;20020;-40
2022/03/21 02:52:31;;;;;;;13.73;11.63;;;17.20;36.30;;;;;;5080259;28;20039;-39
2022/03/21 02:54:57;;;;;;;14.70;12.20;;;17.10;36.30;;;;;;5097426;28;20016;-39
2022/03/21 02:57:24;;;;;;;13.88;11.80;;;17.20;36.30;;;;;;5097244;28;20008;-39
2022/03/21 02:59:49;;;;;;;14.32;11.80;;;17.20;36.30;;;;;;5099480;28;20012;-42
2022/03/21 03:02:16;;;;;;;11.73;10.52;;;17.20;36.30;;;;;;5082660;28;20019;-40
2022/03/21 03:04:42;;;;;;;12.57;11.20;;;17.20;36.30;;;;;;5100885;28;20070;-44
2022/03/21 03:07:08;;;;;;;12.93;11.52;;;17.20;36.30;;;;;;5101164;28;20050;-39
2022/03/21 03:09:33;;;;;;;13.38;11.55;;;17.20;36.30;;;;;;5099392;28;20505;-41
2022/03/21 03:12:00;;;;;;;12.45;11.00;;;17.20;36.30;;;;;;5081553;28;20502;-41
2022/03/21 03:14:26;;;;;;;12.80;10.98;;;17.10;36.30;;;;;;5099683;28;20008;-40
2022/03/21 03:16:52;;;;;;;14.02;11.98;;;17.10;36.40;;;;;;5078229;28;20034;-40
2022/03/21 03:19:19;;;;;;;12.65;11.32;;;17.10;36.40;;;;;;5094526;28;20016;-38
2022/03/21 03:21:45;;;;;;;12.82;11.52;;;17.10;36.30;;;;;;5093829;28;20020;-39
2022/03/21 03:24:11;;;;;;;12.82;11.40;;;17.10;36.40;;;;;;5075587;28;20051;-38
2022/03/21 03:26:37;;;;;;;13.57;11.98;;;17.10;36.40;;;;;;5093656;28;20062;-38
2022/03/21 03:29:03;;;;;;;12.80;11.32;;;17.10;36.40;;;;;;5093877;28;20020;-39
2022/03/21 03:31:29;;;;;;;13.57;11.73;;;17.10;36.40;;;;;;5093163;28;20032;-39
2022/03/21 03:33:55;;;;;;;13.18;11.30;;;17.10;36.40;;;;;;5094314;28;20535;-39
2022/03/21 03:36:24;;;;;;;13.85;11.95;;;17.10;36.40;;;;;;5075739;28;20765;-40
2022/03/21 03:38:51;;;;;;;11.90;10.70;;;17.10;36.40;;;;;;5075812;28;20034;-40
2022/03/21 03:41:17;;;;;;;12.63;11.32;;;17.10;36.40;;;;;;5093992;28;20016;-40
2022/03/21 03:43:45;;;;;;;12.32;10.82;;;17.10;36.30;;;;;;5075706;28;20020;-39
2022/03/21 03:46:11;;;;;;;14.13;10.95;;;17.10;36.40;;;;;;5093468;28;20351;-39
2022/03/21 03:48:38;;;;;;;13.32;11.18;;;17.10;36.50;;;;;;5093113;28;20707;-39
2022/03/21 03:51:04;;;;;;;14.57;11.88;;;17.10;36.40;;;;;;5093312;28;20024;-39
2022/03/21 03:53:30;;;;;;;12.35;11.07;;;17.10;36.50;;;;;;5093095;28;20019;-40
2022/03/21 03:55:57;;;;;;;12.98;11.40;;;17.10;36.40;;;;;;5093520;28;20021;-40
2022/03/21 03:58:22;;;;;;;12.82;11.43;;;17.10;36.30;;;;;;5093265;28;20028;-42
2022/03/21 04:00:49;;;;;;;12.77;11.15;;;17.10;36.40;;;;;;5093056;28;20024;-40
2022/03/21 04:06:10;;;;;;;11.93;10.63;;;17.00;36.40;;;;;;5069662;28;20036;-42
2022/03/21 04:08:36;;;;;;;14.13;12.15;;;17.00;36.40;;;;;;5076335;28;20097;-41
2022/03/21 04:11:02;;;;;;;12.93;11.50;;;17.00;36.40;;;;;;5075812;28;20491;-40
2022/03/21 04:13:28;;;;;;;12.10;10.85;;;17.00;36.30;;;;;;5093689;28;20036;-40
2022/03/21 04:15:54;;;;;;;12.35;10.90;;;17.10;36.30;;;;;;5076191;28;20077;-41
2022/03/21 04:18:20;;;;;;;14.07;12.05;;;17.10;36.30;;;;;;5093676;28;20074;-43
2022/03/21 04:20:50;;;;;;;12.25;10.95;;;17.10;36.20;;;;;;5093991;28;20021;-40
2022/03/21 04:23:17;;;;;;;;;;;17.20;36.10;;;;;;5076783;28;20027;-40
2022/03/21 04:25:43;;;;;;;12.63;11.30;;;17.20;35.90;;;;;;5093678;28;19900;-39
2022/03/21 04:28:13;;;;;;;11.88;10.60;;;17.30;35.90;;;;;;5075771;28;20088;-39
2022/03/21 04:30:39;;;;;;;12.40;11.10;;;17.40;35.60;;;;;;5093864;28;20036;-46
2022/03/21 04:33:05;;;;;;;12.07;10.73;;;17.70;35.20;;;;;;5094176;28;20012;-40
2022/03/21 04:35:31;;;;;;;12.45;10.70;;;17.90;34.70;;;;;;5094798;28;20374;-39
2022/03/21 04:37:57;;;;;;;12.35;10.75;;;18.00;34.30;;;;;;5094377;28;20009;-39
2022/03/21 04:40:23;;;;;;;11.25;10.10;;;18.20;34.10;;;;;;5094150;28;20013;-40
2022/03/21 04:42:49;;;;;;;12.82;10.77;;;18.30;33.90;;;;;;5077009;28;20020;-41
2022/03/21 04:45:16;;;;;;;11.40;10.18;;;18.40;33.60;;;;;;5097412;28;20111;-42
2022/03/21 04:47:43;;;;;;;12.27;10.68;;;18.50;34.00;;;;;;5097233;28;20055;-40
2022/03/21 04:50:09;;;;;;;12.38;10.70;;;18.60;33.20;;;;;;5097179;28;20110;-41
2022/03/21 04:52:35;;;;;;;11.23;10.02;;;18.70;33.00;;;;;;5096955;28;20020;-40
2022/03/21 04:55:01;;;;;;;12.68;11.38;;;18.90;32.80;;;;;;5097210;28;20650;-42
2022/03/21 04:57:27;;;;;;;11.73;10.35;;;18.90;32.60;;;;;;5097539;28;20084;-41
2022/03/21 04:59:55;;;;;;;11.90;10.23;;;19.00;32.50;;;;;;5079260;28;20012;-41
2022/03/21 05:02:20;;;;;;;11.18;9.80;;;19.10;32.30;;;;;;5096976;28;20386;-40
2022/03/21 05:04:46;;;;;;;11.40;10.20;;;19.20;32.20;;;;;;5097019;28;20016;-41
2022/03/21 05:07:16;;;;;;;11.32;10.10;;;19.30;32.00;;;;;;5078653;28;20099;-40
2022/03/21 05:09:42;;;;;;;11.85;10.60;;;19.40;31.90;;;;;;5096399;28;20016;-39
2022/03/21 05:12:09;;;;;;;11.13;10.02;;;19.50;31.70;;;;;;5095803;28;20052;-39
2022/03/21 05:14:36;;;;;;;11.05;9.90;;;19.60;32.10;;;;;;5078346;28;20026;-40
2022/03/21 05:17:02;;;;;;;10.73;9.63;;;19.70;31.40;;;;;;5096014;28;20043;-40
2022/03/21 05:19:29;;;;;;;11.77;10.45;;;19.80;31.30;;;;;;5096865;28;20533;-40
2022/03/21 05:21:54;;;;;;;11.30;10.20;;;19.80;31.10;;;;;;5096112;28;20095;-39
2022/03/21 05:32:33;;;;;;;10.90;9.77;;;20.20;30.50;;;;;;5097691;28;20395;-42
2022/03/21 05:37:44;;;;;;;11.35;9.77;;;20.40;30.20;;;;;;5098110;28;20027;-40
2022/03/21 05:42:55;;;;;;;11.13;10.02;;;20.60;30.00;;;;;;5098269;28;20061;-43
2022/03/21 05:45:20;;;;;;;10.93;9.82;;;20.60;30.30;;;;;;5081958;28;20020;-39
2022/03/21 05:50:37;;;;;;;10.57;9.48;;;20.70;29.80;;;;;;5101106;28;20117;-41
2022/03/21 05:53:03;;;;;;;11.90;10.00;;;20.80;29.70;;;;;;5099981;28;20043;-46
2022/03/21 05:55:30;;;;;;;11.05;9.88;;;20.90;29.70;;;;;;5081706;28;20009;-41
2022/03/21 05:57:57;;;;;;;11.07;9.98;;;20.80;29.60;;;;;;5082432;28;20013;-40
2022/03/21 06:00:27;;;;;;;10.95;9.75;;;20.90;29.50;;;;;;5099264;28;20524;-39
2022/03/21 06:02:53;;;;;;;11.05;9.88;;;21.00;29.40;;;;;;5081099;28;20019;-44
2022/03/21 06:05:20;;;;;;;10.90;9.70;;;21.10;29.40;;;;;;5081089;28;20470;-38
2022/03/21 06:07:46;;;;;;;10.93;9.82;;;21.20;29.30;;;;;;5098832;28;20067;-38
2022/03/21 06:10:12;;;;;;;10.98;9.88;;;21.20;29.20;;;;;;5099177;28;20080;-39
2022/03/21 06:12:41;;;;;;;10.43;9.32;;;21.20;29.20;;;;;;5098331;28;20044;-39
2022/03/21 06:15:08;;;;;;;11.15;10.02;;;21.30;29.20;;;;;;5099190;28;20073;-41
2022/03/21 06:17:41;;;;;;;11.07;9.98;;;21.40;29.00;;;;;;5102723;28;20078;-43
2022/03/21 06:20:16;;;;;;;10.63;9.52;;;21.80;28.70;;;;;;5102405;28;20027;-39
2022/03/21 06:22:42;;;;;;;10.82;9.73;;;22.10;28.30;;;;;;5102723;28;20416;-38
2022/03/21 06:25:09;;;;;;;10.98;9.88;;;22.40;27.90;;;;;;5083621;28;20073;-38
2022/03/21 06:27:38;;;;;;;10.60;9.50;;;22.70;27.60;;;;;;5101235;28;20015;-38
2022/03/21 06:30:05;;;;;;;11.13;10.03;;;22.90;27.30;;;;;;5098893;28;20016;-39
2022/03/21 06:32:33;;;;;;;10.70;9.60;;;22.70;27.30;;;;;;5096323;28;20359;-40
2022/03/21 06:35:00;;;;;;;10.60;9.50;;;22.60;27.50;;;;;;5096037;28;20017;-38
2022/03/21 06:37:26;;;;;;;11.18;10.07;;;22.60;27.50;;;;;;5078081;28;20012;-38
2022/03/21 06:39:52;;;;;;;10.80;9.70;;;22.60;27.50;;;;;;5078253;28;20023;-39
2022/03/21 06:42:21;;;;;;;10.73;9.63;;;22.60;27.50;;;;;;5078614;28;20036;-41
2022/03/21 06:44:50;;;;;;;10.87;9.77;;;22.70;27.50;;;;;;5095725;28;20024;-39
2022/03/21 06:47:17;;;;;;;10.15;9.15;;;22.70;27.40;;;;;;5095703;28;20093;-38
2022/03/21 06:49:43;;;;;;;10.50;9.48;;;22.80;27.30;;;;;;5096058;28;20028;-43
2022/03/21 06:52:09;;;;;;;10.10;9.10;;;22.90;27.30;;;;;;5077461;28;20107;-38
2022/03/21 06:54:35;;;;;;;11.10;9.63;;;22.90;27.20;;;;;;5095288;28;20019;-39
2022/03/21 06:57:01;;;;;;;10.55;9.45;;;23.00;27.20;;;;;;5094025;28;20024;-38
2022/03/21 06:59:29;;;;;;;10.23;9.23;;;23.10;27.10;;;;;;5075799;28;20019;-39
2022/03/21 07:01:55;;;;;;;10.93;9.70;;;23.10;27.00;;;;;;5075182;28;20018;-38
2022/03/21 07:04:25;;;;;;;9.73;8.82;;;23.20;27.00;;;;;;5093562;28;20020;-38
2022/03/21 07:06:51;;;;;;;10.38;9.18;;;23.30;27.00;;;;;;5057907;28;20419;-38
2022/03/21 07:09:17;;;;;;;9.77;8.57;;;23.30;26.90;;;;;;5075114;28;20125;-38
2022/03/21 07:11:42;;;;;;;9.95;8.95;;;23.40;26.90;;;;;;5074558;28;20063;-38
2022/03/21 07:14:08;;;;;;;10.13;9.13;;;23.50;26.80;;;;;;5093202;28;20020;-38
2022/03/21 07:16:34;;;;;;;10.05;9.02;;;23.50;26.80;;;;;;5075456;28;20019;-38
2022/03/21 07:19:00;;;;;;;10.02;9.02;;;23.60;26.70;;;;;;5074608;28;20024;-38
2022/03/21 07:21:26;;;;;;;10.38;9.10;;;23.70;26.70;;;;;;5073603;28;20023;-38
2022/03/21 07:23:51;;;;;;;10.65;9.32;;;23.80;26.70;;;;;;5073982;28;20016;-37
2022/03/21 07:26:17;;;;;;;12.00;9.60;;;23.80;26.50;;;;;;5093454;28;20370;-37
2022/03/21 07:28:43;;;;;;;13.75;9.40;;;23.90;26.50;;;;;;5094604;28;20027;-37
2022/03/21 07:31:11;;;;;;;13.85;9.50;;;24.00;26.50;;;;;;5075653;28;20020;-36
2022/03/21 07:33:40;;;;;;;11.43;8.88;;;24.00;26.40;;;;;;5059018;28;20054;-36
2022/03/21 07:36:07;;;;;;;11.20;8.77;;;24.10;26.40;;;;;;5075836;28;20016;-36
2022/03/21 07:38:34;;;;;;;10.30;9.20;;;24.10;26.30;;;;;;5093328;28;20020;-36
2022/03/21 07:40:59;;;;;;;10.13;9.02;;;24.20;26.30;;;;;;5075764;28;20048;-36
2022/03/21 07:43:25;;;;;;;13.27;10.23;;;24.30;26.30;;;;;;5075959;28;20061;-35
2022/03/21 07:48:36;;;;;;;13.70;10.23;;;24.40;26.10;;;;;;5077918;28;20023;-36
2022/03/21 07:51:05;;;;;;;13.10;9.73;;;24.40;25.90;;;;;;5075362;28;20128;-37
2022/03/21 07:53:36;;;;;;;12.95;9.93;;;24.50;25.90;;;;;;5076123;28;20137;-38
2022/03/21 07:56:02;;;;;;;13.73;10.07;;;24.50;25.80;;;;;;5093309;28;20459;-36
2022/03/21 07:58:27;;;;;;;13.50;10.32;;;24.60;25.70;;;;;;5074881;28;20129;-40
2022/03/21 08:00:53;;;;;;;15.30;9.90;;;24.60;25.60;;;;;;5074753;28;20697;-36
2022/03/21 08:03:19;;;;;;;11.57;10.10;;;24.70;25.60;;;;;;5093162;28;20541;-35
2022/03/21 08:05:45;;;;;;;14.00;10.80;;;24.70;25.60;;;;;;5093044;28;20069;-35
2022/03/21 08:08:12;;;;;;;12.90;10.43;;;24.80;25.50;;;;;;5092865;28;20039;-36
2022/03/21 08:10:37;;;;;;;12.80;10.43;;;24.80;25.40;;;;;;5092764;28;20012;-35
2022/03/21 08:13:03;;;;;;;12.32;10.65;;;24.80;25.30;;;;;;5092179;28;20044;-36
2022/03/21 08:15:29;;;;;;;11.65;9.82;;;24.90;25.30;;;;;;5092423;28;20012;-36
2022/03/21 08:17:59;;;;;;;13.43;10.10;;;24.90;25.30;;;;;;5095161;28;20025;-36
2022/03/21 08:20:38;;;;;;;17.35;10.18;;;24.90;25.20;;;;;;5096586;28;20012;-36
2022/03/21 08:23:06;;;;;;;13.32;10.00;;;25.00;25.20;;;;;;5080078;28;20016;-36
2022/03/21 08:25:33;;;;;;;12.80;9.75;;;25.10;25.20;;;;;;5078600;28;20024;-36
2022/03/21 08:27:59;;;;;;;10.43;9.00;;;25.10;25.10;;;;;;5096771;28;20470;-36
2022/03/21 08:30:27;;;;;;;12.88;10.02;;;25.10;25.10;;;;;;5096709;28;20025;-37
2022/03/21 08:32:53;;;;;;;13.57;9.65;;;25.20;25.20;;;;;;5097223;28;20032;-37
2022/03/21 08:35:19;;;;;;;11.18;9.48;;;25.20;25.10;;;;;;5096986;28;20365;-36
2022/03/21 08:37:47;;;;;;;13.00;9.50;;;25.30;25.10;;;;;;5096363;28;20099;-37
2022/03/21 08:40:13;;;;;;;10.35;9.02;;;25.30;25.10;;;;;;5078732;28;20008;-37
2022/03/21 08:42:39;;;;;;;13.25;9.35;;;25.30;25.00;;;;;;5078644;28;20023;-35
2022/03/21 08:45:06;;;;;;;10.35;9.25;;;25.40;25.10;;;;;;5096673;28;20561;-36
2022/03/21 08:47:31;;;;;;;16.60;10.45;;;25.40;25.10;;;;;;5096246;28;20036;-37
2022/03/21 08:49:57;;;;;;;11.07;9.23;;;25.50;25.00;;;;;;5096618;28;20496;-42
2022/03/21 08:52:23;;;;;;;11.55;8.95;;;25.50;25.00;;;;;;5096150;28;20084;-37
2022/03/21 08:54:49;;;;;;;11.80;9.20;;;25.50;25.00;;;;;;5061684;28;20023;-38
2022/03/21 08:57:14;;;;;;;11.68;8.77;;;25.60;25.00;;;;;;5078550;28;20012;-37
2022/03/21 08:59:40;;;;;;;13.07;9.15;;;25.50;25.00;;;;;;5096629;28;20099;-37
2022/03/21 09:02:08;;;;;;;13.27;8.32;;;25.60;25.10;;;;;;5095691;28;20020;-38
2022/03/21 09:04:35;;;;;;;13.65;8.93;;;25.60;25.10;;;;;;5060524;28;20020;-38
2022/03/21 09:07:02;;;;;;;13.10;8.75;;;25.60;25.10;;;;;;5077172;28;20024;-38
2022/03/21 09:09:27;;;;;;;11.93;8.40;;;25.60;25.10;;;;;;5076446;28;20104;-39
2022/03/21 09:12:19;;;;;;;12.77;8.73;;;25.60;25.10;;;;;;5069408;22;20084;-66
2022/03/21 09:14:45;;;;;;;11.07;8.30;;;25.70;25.10;;;;;;5037756;28;20033;-68
2022/03/21 09:17:11;;;;;;;12.57;8.73;;;25.70;25.10;;;;;;5037501;28;20468;-66
2022/03/21 09:19:38;;;;;;;10.65;8.15;;;25.70;25.10;;;;;;5020665;28;20100;-66
2022/03/21 09:22:03;;;;;;;11.85;8.55;;;25.80;25.10;;;;;;5037305;28;20041;-65
2022/03/21 09:27:56;;;;;;;13.07;7.70;;;25.90;25.20;;;;;;5160742;22;20034;-79
2022/03/21 09:30:23;;;;;;;10.00;7.80;;;25.90;25.20;;;;;;5110121;27;20075;-79
2022/03/21 09:32:50;;;;;;;14.90;8.38;;;25.80;25.20;;;;;;5112816;27;20030;-82
2022/03/21 09:35:15;;;;;;;12.98;8.30;;;25.90;25.30;;;;;;5144297;27;20018;-77
2022/03/21 09:37:44;;;;;;;10.07;7.32;;;25.90;25.30;;;;;;5127712;27;20031;-78
2022/03/21 09:40:11;;;;;;;12.43;7.55;;;25.90;25.30;;;;;;5143430;27;20007;-78
2022/03/21 09:42:38;;;;;;;10.82;7.75;;;26.00;25.40;;;;;;5143644;27;20023;-75
2022/03/21 09:45:08;;;;;;;12.20;7.90;;;26.00;25.40;;;;;;5143257;27;20038;-76
2022/03/21 09:50:18;;;;;;;11.95;7.35;;;26.00;25.40;;;;;;5163438;27;20136;-78
2022/03/21 09:52:44;;;;;;;15.73;7.85;;;26.00;25.40;;;;;;5127576;27;20042;-80
2022/03/21 09:55:10;;;;;;;10.32;7.50;;;26.10;25.50;;;;;;5127488;27;20083;-78
2022/03/21 09:57:36;;;;;;;14.27;7.70;;;26.10;25.50;;;;;;5142864;27;20060;-77
2022/03/21 10:00:06;;;;;;;11.93;7.53;;;26.10;25.50;;;;;;5141184;27;20469;-78
2022/03/21 10:02:31;;;;;;;9.88;6.70;;;26.10;25.60;;;;;;5110405;27;20019;-80
2022/03/21 10:04:57;;;;;;;10.57;6.82;;;26.10;25.60;;;;;;5108977;27;20018;-77
2022/03/21 10:07:27;;;;;;;11.15;7.05;;;26.10;25.60;;;;;;5143012;27;20019;-77
2022/03/21 10:10:09;;;;;;;10.10;7.15;;;26.20;25.70;;;;;;5109865;27;20070;-77
2022/03/21 10:12:36;;;;;;;9.43;6.45;;;26.20;25.70;;;;;;5127319;27;20019;-76
2022/03/21 10:15:10;;;;;;;11.25;6.78;;;26.20;25.70;;;;;;5125897;27;20069;-77
2022/03/21 10:17:39;;;;;;;10.85;6.85;;;26.20;25.80;;;;;;5109369;27;20011;-85
2022/03/21 10:20:10;;;;;;;12.40;7.30;;;26.20;25.80;;;;;;5109656;27;20106;-76
2022/03/21 10:22:43;;;;;;;10.20;6.88;;;26.20;25.80;;;;;;5162383;27;20032;-76
2022/03/21 10:25:17;;;;;;;11.32;6.75;;;26.20;25.90;;;;;;5144285;27;20069;-76
2022/03/21 10:27:44;;;;;;;13.00;6.78;;;26.20;25.90;;;;;;5142756;27;20043;-75
2022/03/21 10:30:15;;;;;;;9.65;6.15;;;26.20;26.00;;;;;;5124399;27;20015;-77
2022/03/21 10:32:42;;;;;;;9.93;7.00;;;26.20;26.00;;;;;;5108456;27;20033;-76
2022/03/21 10:35:16;;;;;;;10.80;6.85;;;26.20;26.10;;;;;;5125054;27;20026;-77
2022/03/21 10:37:48;;;;;;;9.45;7.03;;;26.20;26.10;;;;;;5142644;27;20022;-79
2022/03/21 10:40:27;;;;;;;14.57;6.90;;;26.20;26.20;;;;;;5144133;27;20019;-79
2022/03/21 10:42:55;;;;;;;11.23;6.68;;;26.20;26.30;;;;;;5144557;27;20015;-77
2022/03/21 10:45:22;;;;;;;10.85;6.40;;;26.20;26.30;;;;;;5164835;27;20505;-78
2022/03/21 10:47:52;;;;;;;10.98;6.40;;;26.20;26.40;;;;;;5159331;27;20019;-77
2022/03/21 10:50:33;;;;;;;9.55;6.07;;;26.20;26.40;;;;;;5160173;27;20051;-79
2022/03/21 10:53:14;;;;;;;9.95;6.22;;;26.20;26.50;;;;;;5140422;27;20052;-78
2022/03/21 10:55:42;;;;;;;9.15;6.18;;;26.20;26.60;;;;;;5140045;27;20022;-78
2022/03/21 10:58:11;;;;;;;10.13;6.30;;;26.20;26.60;;;;;;5159481;27;19999;-77
2022/03/21 11:00:37;;;;;;;10.95;6.47;;;26.20;26.70;;;;;;5161344;27;20046;-77
2022/03/21 11:03:09;;;;;;;11.18;6.53;;;26.20;26.70;;;;;;5126556;27;20030;-79
2022/03/21 11:05:37;;;;;;;10.27;6.32;;;26.20;26.80;;;;;;5142735;27;20015;-77
2022/03/21 11:08:05;;;;;;;10.95;6.07;;;26.20;26.80;;;;;;5140945;27;20051;-77
2022/03/21 11:10:31;;;;;;;12.43;6.75;;;26.20;26.90;;;;;;5140218;27;20033;-77
2022/03/21 11:12:58;;;;;;;8.13;5.75;;;26.20;27.00;;;;;;5157397;27;20019;-78
2022/03/21 11:15:24;;;;;;;9.02;6.38;;;26.20;27.10;;;;;;5121212;27;20045;-77
2022/03/21 11:17:51;;;;;;;14.02;6.32;;;26.20;27.10;;;;;;5122423;27;20025;-78
2022/03/21 11:20:17;;;;;;;9.02;6.40;;;26.10;27.10;;;;;;5122931;27;20038;-78
2022/03/21 11:22:43;;;;;;;9.25;5.97;;;26.10;27.20;;;;;;5158432;27;20015;-79
2022/03/21 11:25:16;;;;;;;9.68;6.00;;;26.10;27.20;;;;;;5157060;27;20023;-78
2022/03/21 11:28:05;;;;;;;9.63;6.35;;;26.10;27.30;;;;;;5139670;27;20178;-78
2022/03/21 11:30:46;;;;;;;10.38;6.10;;;26.00;27.40;;;;;;5141649;27;20045;-78
2022/03/21 11:33:30;;;;;;;8.80;6.03;;;26.10;27.50;;;;;;5157626;27;20118;-78
2022/03/21 11:36:01;;;;;;;11.18;6.47;;;26.00;27.50;;;;;;5139649;27;20027;-77
2022/03/21 11:38:29;;;;;;;9.65;6.03;;;26.00;27.50;;;;;;5139150;27;20464;-78
2022/03/21 11:41:21;;;;;;;9.05;6.15;;;26.00;27.60;;;;;;5156563;27;20079;-77
2022/03/21 11:44:07;;;;;;;16.58;6.30;;;26.00;28.10;;;;;;5159432;27;20087;-78
2022/03/21 11:46:37;;;;;;;11.02;6.85;;;25.70;27.80;;;;;;5158803;27;20037;-77
2022/03/21 11:49:27;;;;;;;12.10;8.10;;;25.10;28.60;;;;;;5142141;27;20607;-76
2022/03/21 11:51:56;;;;;;;16.58;9.73;;;24.50;29.50;;;;;;5145517;27;20133;-77
2022/03/21 11:54:30;;;;;;;16.77;9.07;;;23.10;32.00;;;;;;5152891;27;20027;-79
2022/03/21 11:56:57;;;;;;;20.73;8.55;;;23.40;32.50;;;;;;5179230;27;20018;-78
2022/03/21 11:59:33;;;;;;;16.95;8.68;;;24.00;32.40;;;;;;5175966;27;20056;-77
2022/03/21 12:02:08;;;;;;;22.52;7.53;;;24.40;32.10;;;;;;5178147;27;20014;-77
2022/03/21 12:04:40;;;;;;;18.45;8.43;;;24.60;31.70;;;;;;5179164;27;20023;-76
2022/03/21 12:07:12;;;;;;;19.65;9.48;;;24.70;31.80;;;;;;5162342;27;20020;-78
2022/03/21 12:09:51;;;;;;;18.55;9.05;;;24.60;31.40;;;;;;5178653;27;20031;-76
2022/03/21 12:12:23;;;;;;;20.70;8.48;;;24.40;32.00;;;;;;5160140;27;20039;-78
2022/03/21 12:15:00;;;;;;;12.70;9.43;;;24.30;32.40;;;;;;5160377;27;20086;-77
2022/03/21 12:17:26;;;;;;;16.58;9.95;;;24.30;32.00;;;;;;5161710;27;20026;-77
2022/03/21 12:19:54;;;;;;;20.38;9.20;;;23.90;32.50;;;;;;5159566;27;20003;-79
2022/03/21 12:22:33;;;;;;;15.30;9.10;;;23.90;33.10;;;;;;5159371;27;20083;-78
2022/03/21 12:25:06;;;;;;;21.40;9.48;;;23.80;33.30;;;;;;5155789;27;20011;-78
2022/03/21 12:27:37;;;;;;;13.98;8.35;;;23.80;33.50;;;;;;5172727;27;20051;-77
2022/03/21 12:30:26;;;;;;;13.20;8.60;;;23.90;33.60;;;;;;5157786;27;20094;-82
2022/03/21 12:33:10;;;;;;;20.88;8.93;;;24.00;33.40;;;;;;5170505;27;20027;-78
2022/03/21 12:35:39;;;;;;;14.60;8.00;;;24.20;33.30;;;;;;5171542;27;20011;-76
2022/03/21 12:38:06;;;;;;;18.02;8.55;;;24.30;33.10;;;;;;5170577;27;20007;-78
2022/03/21 12:40:36;;;;;;;18.00;8.02;;;24.30;33.10;;;;;;5145454;27;20094;-75
2022/03/21 12:43:03;;;;;;;26.63;10.73;;;24.10;33.20;;;;;;5166698;27;20031;-75
2022/03/21 12:45:32;;;;;;;19.35;8.85;;;23.40;33.80;;;;;;5127714;27;20080;-77
2022/03/21 12:48:00;;;;;;;26.83;10.05;;;23.00;35.10;;;;;;5127665;27;20083;-77
2022/03/21 12:50:28;;;;;;;25.00;10.68;;;22.70;35.40;;;;;;5142786;27;20023;-75
2022/03/21 12:52:55;;;;;;;30.50;9.82;;;22.30;36.20;;;;;;5141923;27;20031;-77
2022/03/21 12:55:22;;;;;;;23.42;8.70;;;22.60;36.20;;;;;;5163834;27;20042;-85
2022/03/21 12:57:57;;;;;;;20.73;9.45;;;23.00;35.50;;;;;;5163745;27;20022;-78
2022/03/21 13:00:26;;;;;;;17.23;9.63;;;23.20;35.00;;;;;;5144806;27;20011;-77
2022/03/21 13:02:56;;;;;;;17.27;9.73;;;23.30;34.80;;;;;;5145842;27;20038;-76
2022/03/21 13:11:04;;;;;;;21.85;8.90;;;23.60;34.10;;;;;;5166530;27;20044;-78